createdAt,value
2019-04-07T00:00:00.384Z,99135.00
2019-04-07T00:02:29.143Z,99133.00
2019-04-07T00:04:58.356Z,99139.00
2019-04-07T00:07:27.514Z,99135.00
2019-04-07T00:09:57.652Z,99132.00
2019-04-07T00:12:25.539Z,99134.00
2019-04-07T00:14:54.076Z,99132.00
2019-04-07T00:17:22.006Z,99134.00
2019-04-07T00:19:50.392Z,99134.00
2019-04-07T00:22:18.496Z,99128.00
2019-04-07T00:24:46.753Z,99132.00
2019-04-07T00:27:14.619Z,99133.00
2019-04-07T00:29:42.781Z,99124.00
2019-04-07T00:32:11.113Z,99131.00
2019-04-07T00:34:39.718Z,99140.00
2019-04-07T00:37:07.618Z,99142.00
2019-04-07T00:39:36.178Z,99142.00
2019-04-07T00:42:04.865Z,99147.00
2019-04-07T00:44:33.146Z,99149.00
2019-04-07T00:47:01.038Z,99142.00
2019-04-07T00:49:29.657Z,99147.00
2019-04-07T00:51:59.637Z,99139.00
2019-04-07T00:54:28.116Z,99136.00
2019-04-07T00:56:56.583Z,99133.00
2019-04-07T00:59:24.642Z,99145.00
2019-04-07T01:01:52.684Z,99142.00
2019-04-07T01:04:21.713Z,99131.00
2019-04-07T01:06:49.600Z,99150.00
2019-04-07T01:09:17.651Z,99145.00
2019-04-07T01:11:46.597Z,99154.00
2019-04-07T01:14:14.546Z,99147.00
2019-04-07T01:16:54.535Z,99156.00
2019-04-07T01:19:25.356Z,99149.00
2019-04-07T01:21:53.600Z,99149.00
2019-04-07T01:24:21.983Z,99154.00
2019-04-07T01:26:50.493Z,99150.00
2019-04-07T01:29:18.487Z,99149.00
2019-04-07T01:31:46.514Z,99148.00
2019-04-07T01:34:15.041Z,99154.00
2019-04-07T01:36:43.331Z,99161.00
2019-04-07T01:39:11.960Z,99155.00
2019-04-07T01:41:49.594Z,99153.00
2019-04-07T01:44:25.817Z,99147.00
2019-04-07T01:47:28.912Z,99155.00
2019-04-07T01:50:23.186Z,99150.00
2019-04-07T01:53:22.912Z,99148.00
2019-04-07T01:56:06.374Z,99152.00
2019-04-07T01:58:54.131Z,99144.00
2019-04-07T02:01:40.525Z,99147.00
2019-04-07T02:04:46.828Z,99152.00
2019-04-07T02:07:40.700Z,99158.00
2019-04-07T02:10:36.262Z,99161.00
2019-04-07T02:13:27.539Z,99159.00
2019-04-07T02:16:06.891Z,99156.00
2019-04-07T02:18:59.698Z,99153.00
2019-04-07T02:21:45.965Z,99154.00
2019-04-07T02:24:31.157Z,99157.00
2019-04-07T02:27:17.972Z,99153.00
2019-04-07T02:30:05.837Z,99153.00
2019-04-07T02:32:56.349Z,99155.00
2019-04-07T02:35:50.534Z,99143.00
2019-04-07T02:38:34.642Z,99148.00
2019-04-07T02:41:17.885Z,99146.00
2019-04-07T02:44:09.301Z,99151.00
2019-04-07T02:46:52.235Z,99147.00
2019-04-07T02:49:39.421Z,99146.00
2019-04-07T02:52:30.811Z,99153.00
2019-04-07T02:55:21.868Z,99159.00
2019-04-07T02:58:21.327Z,99150.00
2019-04-07T03:01:04.039Z,99150.00
2019-04-07T03:03:50.355Z,99152.00
2019-04-07T03:06:51.008Z,99158.00
2019-04-07T03:09:44.304Z,99167.00
2019-04-07T03:12:31.868Z,99165.00
2019-04-07T03:15:11.666Z,99167.00
2019-04-07T03:18:01.692Z,99167.00
2019-04-07T03:20:53.894Z,99172.00
2019-04-07T03:23:42.316Z,99173.00
2019-04-07T03:26:29.312Z,99175.00
2019-04-07T03:29:18.304Z,99174.00
2019-04-07T03:32:27.577Z,99171.00
2019-04-07T03:35:23.464Z,99168.00
2019-04-07T03:38:12.097Z,99174.00
2019-04-07T03:41:03.368Z,99167.00
2019-04-07T03:43:51.131Z,99174.00
2019-04-07T03:46:28.879Z,99170.00
2019-04-07T03:49:03.909Z,99177.00
2019-04-07T03:51:49.902Z,99170.00
2019-04-07T03:54:26.750Z,99172.00
2019-04-07T03:57:15.071Z,99167.00
2019-04-07T04:00:02.240Z,99167.00
2019-04-07T04:02:50.552Z,99171.00
2019-04-07T04:05:41.388Z,99181.00
2019-04-07T04:08:29.087Z,99179.00
2019-04-07T04:11:07.050Z,99178.00
2019-04-07T04:13:45.774Z,99180.00
2019-04-07T04:16:18.018Z,99172.00
2019-04-07T04:18:45.945Z,99181.00
2019-04-07T04:21:13.886Z,99185.00
2019-04-07T04:23:43.105Z,99179.00
2019-04-07T04:26:11.663Z,99179.00
2019-04-07T04:28:39.549Z,99183.00
2019-04-07T04:31:07.435Z,99187.00
2019-04-07T04:33:35.288Z,99186.00
2019-04-07T04:36:03.178Z,99183.00
2019-04-07T04:38:31.837Z,99180.00
2019-04-07T04:41:00.154Z,99185.00
2019-04-07T04:43:28.311Z,99188.00
2019-04-07T04:45:56.839Z,99197.00
2019-04-07T04:48:25.929Z,99195.00
2019-04-07T04:50:54.143Z,99194.00
2019-04-07T04:53:22.643Z,99194.00
2019-04-07T04:55:51.489Z,99196.00
2019-04-07T04:58:19.526Z,99199.00
2019-04-07T05:00:48.486Z,99195.00
2019-04-07T05:03:17.993Z,99204.00
2019-04-07T05:05:46.890Z,99202.00
2019-04-07T05:08:16.145Z,99203.00
2019-04-07T05:10:45.632Z,99207.00
2019-04-07T05:13:14.064Z,99216.00
2019-04-07T05:15:43.499Z,99204.00
2019-04-07T05:18:12.034Z,99211.00
2019-04-07T05:20:40.086Z,99218.00
2019-04-07T05:23:08.648Z,99219.00
2019-04-07T05:25:36.973Z,99214.00
2019-04-07T05:28:05.871Z,99210.00
2019-04-07T05:30:33.905Z,99216.00
2019-04-07T05:33:03.495Z,99222.00
2019-04-07T05:35:31.640Z,99221.00
2019-04-07T05:38:03.492Z,99214.00
2019-04-07T05:40:29.597Z,99220.00
2019-04-07T05:42:57.511Z,99217.00
2019-04-07T05:45:25.518Z,99229.00
2019-04-07T05:47:53.533Z,99236.00
2019-04-07T05:50:22.295Z,99240.00
2019-04-07T05:52:50.771Z,99241.00
2019-04-07T05:55:21.826Z,99252.00
2019-04-07T05:57:49.697Z,99255.00
2019-04-07T06:00:18.873Z,99250.00
2019-04-07T06:02:47.178Z,99250.00
2019-04-07T06:05:16.211Z,99256.00
2019-04-07T06:07:45.928Z,99268.00
2019-04-07T06:10:14.507Z,99258.00
2019-04-07T06:12:46.867Z,99263.00
2019-04-07T06:15:15.738Z,99251.00
2019-04-07T06:17:43.653Z,99262.00
2019-04-07T06:20:14.231Z,99260.00
2019-04-07T06:22:41.413Z,99263.00
2019-04-07T06:25:11.019Z,99258.00
2019-04-07T06:27:39.356Z,99255.00
2019-04-07T06:30:09.765Z,99265.00
2019-04-07T06:32:39.485Z,99263.00
2019-04-07T06:35:12.363Z,99265.00
2019-04-07T06:37:39.747Z,99259.00
2019-04-07T06:40:08.974Z,99257.00
2019-04-07T06:42:37.587Z,99258.00
2019-04-07T06:45:08.198Z,99263.00
2019-04-07T06:47:48.640Z,99269.00
2019-04-07T06:50:45.494Z,99274.00
2019-04-07T06:53:16.349Z,99264.00
2019-04-07T06:56:04.119Z,99265.00
2019-04-07T06:58:55.635Z,99276.00
2019-04-07T07:01:41.895Z,99270.00
2019-04-07T07:04:30.074Z,99270.00
2019-04-07T07:07:07.694Z,99272.00
2019-04-07T07:09:52.021Z,99260.00
2019-04-07T07:12:43.884Z,99271.00
2019-04-07T07:15:26.830Z,99267.00
2019-04-07T07:18:27.332Z,99279.00
2019-04-07T07:21:16.579Z,99281.00
2019-04-07T07:23:48.887Z,99278.00
2019-04-07T07:26:15.970Z,99274.00
2019-04-07T07:28:44.958Z,99277.00
2019-04-07T07:31:14.304Z,99289.00
2019-04-07T07:33:43.697Z,99280.00
2019-04-07T07:36:12.452Z,99284.00
2019-04-07T07:38:54.465Z,99285.00
2019-04-07T07:41:11.929Z,99284.00
2019-04-07T07:43:40.264Z,99290.00
2019-04-07T07:46:08.718Z,99283.00
2019-04-07T07:48:36.896Z,99286.00
2019-04-07T07:51:07.170Z,99287.00
2019-04-07T07:53:34.814Z,99287.00
2019-04-07T07:56:03.209Z,99289.00
2019-04-07T07:58:33.378Z,99289.00
2019-04-07T08:01:01.556Z,99291.00
2019-04-07T08:03:30.334Z,99289.00
2019-04-07T08:05:59.049Z,99296.00
2019-04-07T08:08:27.649Z,99289.00
2019-04-07T08:10:59.107Z,99297.00
2019-04-07T08:13:25.855Z,99305.00
2019-04-07T08:15:56.621Z,99298.00
2019-04-07T08:18:23.895Z,99294.00
2019-04-07T08:20:52.228Z,99296.00
2019-04-07T08:23:25.327Z,99294.00
2019-04-07T08:25:56.063Z,99292.00
2019-04-07T08:28:24.423Z,99290.00
2019-04-07T08:30:52.940Z,99304.00
2019-04-07T08:33:21.001Z,99300.00
2019-04-07T08:35:50.270Z,99299.00
2019-04-07T08:38:21.627Z,99291.00
2019-04-07T08:40:49.688Z,99300.00
2019-04-07T08:43:21.410Z,99298.00
2019-04-07T08:45:48.052Z,99308.00
2019-04-07T08:48:18.210Z,99309.00
2019-04-07T08:50:47.451Z,99318.00
2019-04-07T08:53:16.269Z,99311.00
2019-04-07T08:55:47.758Z,99311.00
2019-04-07T08:58:24.956Z,99316.00
2019-04-07T09:00:50.806Z,99309.00
2019-04-07T09:03:18.468Z,99313.00
2019-04-07T09:05:46.766Z,99308.00
2019-04-07T09:08:15.062Z,99304.00
2019-04-07T09:10:56.960Z,99312.00
2019-04-07T09:13:25.138Z,99308.00
2019-04-07T09:16:25.071Z,99307.00
2019-04-07T09:19:19.268Z,99298.00
2019-04-07T09:21:57.036Z,99307.00
2019-04-07T09:24:48.310Z,99306.00
2019-04-07T09:27:25.811Z,99300.00
2019-04-07T09:29:59.951Z,99300.00
2019-04-07T09:32:46.220Z,99298.00
2019-04-07T09:35:33.908Z,99308.00
2019-04-07T09:38:24.949Z,99306.00
2019-04-07T09:41:03.769Z,99305.00
2019-04-07T09:43:48.456Z,99296.00
2019-04-07T09:46:35.424Z,99308.00
2019-04-07T09:49:24.385Z,99300.00
2019-04-07T09:52:10.350Z,99294.00
2019-04-07T09:54:55.474Z,99295.00
2019-04-07T09:57:42.911Z,99287.00
2019-04-07T10:00:30.943Z,99309.00
2019-04-07T10:03:19.268Z,99294.00
2019-04-07T10:06:16.742Z,99294.00
2019-04-07T10:08:51.039Z,99292.00
2019-04-07T10:11:26.312Z,99295.00
2019-04-07T10:14:08.437Z,99296.00
2019-04-07T10:17:08.757Z,99298.00
2019-04-07T10:19:50.306Z,99299.00
2019-04-07T10:22:44.160Z,99293.00
2019-04-07T10:25:27.960Z,99288.00
2019-04-07T10:28:08.915Z,99296.00
2019-04-07T10:30:45.962Z,99305.00
2019-04-07T10:33:22.591Z,99306.00
2019-04-07T10:36:25.428Z,99298.00
2019-04-07T10:39:16.093Z,99293.00
2019-04-07T10:41:59.105Z,99293.00
2019-04-07T10:44:50.447Z,99279.00
2019-04-07T10:47:38.377Z,99306.00
2019-04-07T10:50:31.442Z,99291.00
2019-04-07T10:53:32.243Z,99294.00
2019-04-07T10:56:19.931Z,99298.00
2019-04-07T10:59:16.128Z,99300.00
2019-04-07T11:01:53.462Z,99294.00
2019-04-07T11:04:44.873Z,99300.00
2019-04-07T11:07:21.803Z,99296.00
2019-04-07T11:10:34.436Z,99289.00
2019-04-07T11:13:16.039Z,99284.00
2019-04-07T11:15:51.972Z,99289.00
2019-04-07T11:18:40.348Z,99288.00
2019-04-07T11:21:37.085Z,99288.00
2019-04-07T11:24:23.999Z,99287.00
2019-04-07T11:27:13.056Z,99288.00
2019-04-07T11:29:45.571Z,99292.00
2019-04-07T11:32:26.200Z,99289.00
2019-04-07T11:35:32.105Z,99291.00
2019-04-07T11:38:09.185Z,99288.00
2019-04-07T11:40:50.737Z,99287.00
2019-04-07T11:43:34.405Z,99289.00
2019-04-07T11:46:22.077Z,99287.00
2019-04-07T11:49:19.515Z,99283.00
2019-04-07T11:51:53.597Z,99290.00
2019-04-07T11:54:26.786Z,99289.00
2019-04-07T11:57:13.990Z,99289.00
2019-04-07T12:00:16.989Z,99290.00
2019-04-07T12:02:53.586Z,99292.00
2019-04-07T12:05:57.083Z,99288.00
2019-04-07T12:08:38.659Z,99297.00
2019-04-07T12:11:24.892Z,99282.00
2019-04-07T12:14:17.033Z,99285.00
2019-04-07T12:17:06.968Z,99274.00
2019-04-07T12:19:54.702Z,99280.00
2019-04-07T12:22:38.061Z,99280.00
2019-04-07T12:25:33.355Z,99278.00
2019-04-07T12:28:20.387Z,99282.00
2019-04-07T12:31:04.225Z,99273.00
2019-04-07T12:33:54.831Z,99283.00
2019-04-07T12:36:48.448Z,99275.00
2019-04-07T12:39:34.969Z,99269.00
2019-04-07T12:42:18.512Z,99261.00
2019-04-07T12:45:00.395Z,99256.00
2019-04-07T12:47:55.112Z,99261.00
2019-04-07T12:50:55.138Z,99264.00
2019-04-07T12:53:43.397Z,99261.00
2019-04-07T12:56:31.701Z,99260.00
2019-04-07T12:59:19.251Z,99255.00
2019-04-07T13:02:00.838Z,99256.00
2019-04-07T13:04:56.050Z,99255.00
2019-04-07T13:07:43.790Z,99252.00
2019-04-07T13:10:30.219Z,99245.00
2019-04-07T13:13:35.210Z,99253.00
2019-04-07T13:16:21.019Z,99248.00
2019-04-07T13:19:09.573Z,99240.00
2019-04-07T13:22:03.060Z,99237.00
2019-04-07T13:24:50.972Z,99245.00
2019-04-07T13:27:35.188Z,99245.00
2019-04-07T13:30:13.847Z,99238.00
2019-04-07T13:33:03.156Z,99234.00
2019-04-07T13:35:49.428Z,99245.00
2019-04-07T13:38:38.322Z,99237.00
2019-04-07T13:41:47.052Z,99227.00
2019-04-07T13:44:36.722Z,99241.00
2019-04-07T13:53:12.239Z,99247.00
2019-04-07T13:55:52.045Z,99237.00
2019-04-07T13:58:45.443Z,99241.00
2019-04-07T14:01:22.300Z,99233.00
2019-04-07T14:04:08.919Z,99231.00
2019-04-07T14:06:59.952Z,99236.00
2019-04-07T14:09:41.682Z,99232.00
2019-04-07T14:12:30.970Z,99227.00
2019-04-07T14:15:22.366Z,99227.00
2019-04-07T14:17:57.960Z,99237.00
2019-04-07T14:20:46.465Z,99236.00
2019-04-07T14:23:37.185Z,99236.00
2019-04-07T14:26:29.963Z,99230.00
2019-04-07T14:29:05.556Z,99239.00
2019-04-07T14:31:49.124Z,99237.00
2019-04-07T14:34:40.239Z,99238.00
2019-04-07T14:37:28.158Z,99244.00
2019-04-07T14:40:16.233Z,99232.00
2019-04-07T14:43:02.874Z,99244.00
2019-04-07T14:45:56.882Z,99242.00
2019-04-07T14:48:53.159Z,99246.00
2019-04-07T14:51:42.457Z,99252.00
2019-04-07T14:54:41.948Z,99250.00
2019-04-07T14:57:28.760Z,99252.00
2019-04-07T15:00:31.718Z,99252.00
2019-04-07T15:03:00.837Z,99256.00
2019-04-07T15:05:32.659Z,99254.00
2019-04-07T15:08:26.521Z,99258.00
2019-04-07T15:10:58.901Z,99264.00
2019-04-07T15:13:28.227Z,99255.00
2019-04-07T15:15:58.255Z,99257.00
2019-04-07T15:18:27.521Z,99260.00
2019-04-07T15:20:56.130Z,99267.00
2019-04-07T15:23:29.479Z,99267.00
2019-04-07T15:25:56.796Z,99264.00
2019-04-07T15:28:29.757Z,99270.00
2019-04-07T15:30:55.724Z,99269.00
2019-04-07T15:33:25.344Z,99268.00
2019-04-07T15:35:54.498Z,99266.00
2019-04-07T15:38:26.993Z,99270.00
2019-04-07T15:40:52.961Z,99272.00
2019-04-07T15:43:21.202Z,99265.00
2019-04-07T15:45:50.132Z,99272.00
2019-04-07T15:48:19.097Z,99280.00
2019-04-07T15:50:47.543Z,99270.00
2019-04-07T15:53:16.566Z,99272.00
2019-04-07T15:55:52.993Z,99269.00
2019-04-07T15:58:14.991Z,99278.00
2019-04-07T16:00:45.144Z,99272.00
2019-04-07T16:03:15.764Z,99281.00
2019-04-07T16:05:46.093Z,99279.00
2019-04-07T16:08:14.345Z,99278.00
2019-04-07T16:10:42.613Z,99278.00
2019-04-07T16:13:10.985Z,99287.00
2019-04-07T16:15:39.091Z,99288.00
2019-04-07T16:18:08.506Z,99290.00
2019-04-07T16:20:40.232Z,99288.00
2019-04-07T16:23:07.095Z,99295.00
2019-04-07T16:25:37.343Z,99288.00
2019-04-07T16:28:09.095Z,99297.00
2019-04-07T16:30:36.392Z,99297.00
2019-04-07T16:33:05.642Z,99300.00
2019-04-07T16:35:34.552Z,99297.00
2019-04-07T16:38:03.017Z,99312.00
2019-04-07T16:40:32.073Z,99313.00
2019-04-07T16:43:11.598Z,99312.00
2019-04-07T16:45:30.432Z,99312.00
2019-04-07T16:47:58.847Z,99308.00
2019-04-07T16:50:27.415Z,99315.00
2019-04-07T16:52:57.496Z,99315.00
2019-04-07T16:55:38.076Z,99318.00
2019-04-07T16:58:06.481Z,99322.00
2019-04-07T17:00:35.596Z,99320.00
2019-04-07T17:03:07.648Z,99327.00
2019-04-07T17:05:37.577Z,99322.00
2019-04-07T17:08:06.209Z,99322.00
2019-04-07T17:10:35.431Z,99325.00
2019-04-07T17:13:14.598Z,99327.00
2019-04-07T17:15:37.456Z,99333.00
2019-04-07T17:18:24.784Z,99331.00
2019-04-07T17:20:51.711Z,99335.00
2019-04-07T17:23:23.144Z,99335.00
2019-04-07T17:25:53.001Z,99339.00
2019-04-07T17:28:21.578Z,99339.00
2019-04-07T17:30:50.635Z,99334.00
2019-04-07T17:33:20.871Z,99345.00
2019-04-07T17:35:48.973Z,99338.00
2019-04-07T17:38:18.739Z,99343.00
2019-04-07T17:40:49.245Z,99359.00
2019-04-07T17:43:46.539Z,99347.00
2019-04-07T17:46:13.082Z,99347.00
2019-04-07T17:48:56.727Z,99353.00
2019-04-07T17:51:39.312Z,99352.00
2019-04-07T17:54:28.850Z,99357.00
2019-04-07T17:57:04.432Z,99359.00
2019-04-07T17:59:50.388Z,99369.00
2019-04-07T18:02:47.615Z,99371.00
2019-04-07T18:05:29.625Z,99370.00
2019-04-07T18:08:34.279Z,99377.00
2019-04-07T18:11:12.979Z,99382.00
2019-04-07T18:14:00.823Z,99380.00
2019-04-07T18:16:48.273Z,99379.00
2019-04-07T18:19:36.365Z,99387.00
2019-04-07T18:22:36.942Z,99388.00
2019-04-07T18:25:35.313Z,99392.00
2019-04-07T18:28:39.114Z,99394.00
2019-04-07T18:31:27.445Z,99384.00
2019-04-07T18:34:15.322Z,99398.00
2019-04-07T18:36:54.274Z,99395.00
2019-04-07T18:39:43.052Z,99399.00
2019-04-07T18:42:31.147Z,99410.00
2019-04-07T18:45:21.612Z,99418.00
2019-04-07T18:48:12.501Z,99419.00
2019-04-07T18:51:03.072Z,99421.00
2019-04-07T18:53:49.523Z,99428.00
2019-04-07T18:56:54.566Z,99425.00
2019-04-07T18:59:59.356Z,99389.00
2019-04-07T19:02:45.977Z,99429.00
2019-04-07T19:05:22.145Z,99441.00
2019-04-07T19:08:02.703Z,99442.00
2019-04-07T19:10:38.956Z,99440.00
2019-04-07T19:13:26.753Z,99445.00
2019-04-07T19:16:12.524Z,99454.00
2019-04-07T19:18:58.801Z,99451.00
2019-04-07T19:21:38.800Z,99451.00
2019-04-07T19:24:30.188Z,99451.00
2019-04-07T19:27:25.388Z,99446.00
2019-04-07T19:30:14.025Z,99446.00
2019-04-07T19:33:02.501Z,99454.00
2019-04-07T19:36:02.832Z,99451.00
2019-04-07T19:38:54.318Z,99455.00
2019-04-07T19:41:48.939Z,99452.00
2019-04-07T19:44:53.218Z,99448.00
2019-04-07T19:47:41.705Z,99453.00
2019-04-07T19:50:32.818Z,99442.00
2019-04-07T19:53:20.316Z,99456.00
2019-04-07T19:56:08.025Z,99451.00
2019-04-07T19:58:55.601Z,99459.00
2019-04-07T20:01:40.046Z,99453.00
2019-04-07T20:04:33.629Z,99456.00
2019-04-07T20:07:13.671Z,99457.00
2019-04-07T20:10:04.946Z,99453.00
2019-04-07T20:12:51.820Z,99461.00
2019-04-07T20:15:31.009Z,99458.00
2019-04-07T20:18:19.260Z,99454.00
2019-04-07T20:21:08.485Z,99462.00
2019-04-07T20:23:43.532Z,99458.00
2019-04-07T20:26:22.277Z,99455.00
2019-04-07T20:29:15.644Z,99447.00
2019-04-07T20:32:03.386Z,99455.00
2019-04-07T20:34:54.602Z,99458.00
2019-04-07T20:37:46.675Z,99460.00
2019-04-07T20:40:44.047Z,99456.00
2019-04-07T20:43:35.235Z,99457.00
2019-04-07T20:46:26.246Z,99458.00
2019-04-07T20:49:22.691Z,99463.00
2019-04-07T20:52:08.949Z,99468.00
2019-04-07T20:54:55.266Z,99465.00
2019-04-07T20:57:42.942Z,99460.00
2019-04-07T21:00:37.176Z,99466.00
2019-04-07T21:03:32.134Z,99470.00
2019-04-07T21:06:34.697Z,99470.00
2019-04-07T21:09:12.303Z,99473.00
2019-04-07T21:11:58.778Z,99474.00
2019-04-07T21:14:45.648Z,99471.00
2019-04-07T21:17:23.786Z,99481.00
2019-04-07T21:20:27.813Z,99474.00
2019-04-07T21:23:25.280Z,99481.00
2019-04-07T21:26:20.955Z,99476.00
2019-04-07T21:29:11.422Z,99480.00
2019-04-07T21:32:08.819Z,99481.00
2019-04-07T21:35:00.550Z,99479.00
2019-04-07T21:37:57.235Z,99487.00
2019-04-07T21:40:48.122Z,99482.00
2019-04-07T21:43:47.480Z,99481.00
2019-04-07T21:46:41.324Z,99486.00
2019-04-07T21:49:24.554Z,99486.00
2019-04-07T21:52:00.094Z,99494.00
2019-04-07T21:55:00.438Z,99493.00
2019-04-07T21:57:46.691Z,99494.00
2019-04-07T22:00:32.626Z,99492.00
2019-04-07T22:03:23.500Z,99499.00
2019-04-07T22:06:05.552Z,99500.00
2019-04-07T22:08:56.084Z,99494.00
2019-04-07T22:11:28.157Z,99492.00
2019-04-07T22:13:54.140Z,99494.00
2019-04-07T22:16:24.205Z,99486.00
2019-04-07T22:18:52.158Z,99483.00
2019-04-07T22:21:22.361Z,99493.00
2019-04-07T22:23:54.215Z,99495.00
2019-04-07T22:26:22.313Z,99491.00
2019-04-07T22:28:50.269Z,99499.00
2019-04-07T22:31:23.390Z,99498.00
2019-04-07T22:33:53.488Z,99505.00
2019-04-07T22:36:21.887Z,99501.00
2019-04-07T22:38:54.421Z,99498.00
2019-04-07T22:41:19.841Z,99506.00
2019-04-07T22:43:50.241Z,99501.00
2019-04-07T22:46:23.490Z,99500.00
2019-04-07T22:48:48.105Z,99505.00
2019-04-07T22:51:16.734Z,99509.00
2019-04-07T22:53:45.475Z,99504.00
2019-04-07T22:56:13.991Z,99513.00
2019-04-07T22:58:42.358Z,99519.00
2019-04-07T23:01:11.112Z,99525.00
2019-04-07T23:03:39.182Z,99525.00
2019-04-07T23:06:07.514Z,99531.00
2019-04-07T23:08:36.976Z,99534.00
2019-04-07T23:11:05.069Z,99527.00
2019-04-07T23:13:33.659Z,99527.00
2019-04-07T23:16:10.767Z,99525.00
2019-04-07T23:18:31.791Z,99524.00
2019-04-07T23:21:01.169Z,99533.00
2019-04-07T23:23:31.008Z,99533.00
2019-04-07T23:25:59.880Z,99540.00
2019-04-07T23:28:27.926Z,99540.00
2019-04-07T23:30:56.944Z,99530.00
2019-04-07T23:33:25.569Z,99527.00
2019-04-07T23:35:53.623Z,99530.00
2019-04-07T23:38:21.939Z,99528.00
2019-04-07T23:40:50.000Z,99529.00
2019-04-07T23:43:18.085Z,99527.00
2019-04-07T23:45:47.527Z,99522.00
2019-04-07T23:48:15.851Z,99523.00
2019-04-07T23:50:43.930Z,99536.00
2019-04-07T23:54:08.660Z,99536.00
2019-04-07T23:56:39.407Z,99536.00
2019-04-07T23:59:08.198Z,99542.00
